Time;durP1;ratioP1;P1;durP2;ratioP2;P2;SDS_P1;SDS_P2;PMS_P1;PMS_P2;Temp;Humidity;BMP_temperature;BMP_pressure;BME280_temperature;BME280_humidity;BME280_pressure;Samples;Min_cycle;Max_cycle;Signal;HPM_P1;HPM_P2
2023/07/18 00:01:59;;;;;;;8.13;3.03;;;;;;;;;;6212579;23;20023;-64
2023/07/18 00:04:27;;;;;;;15.32;4.45;;;;;;;;;;6212263;23;20466;-64
2023/07/18 00:06:54;;;;;;;7.85;2.80;;;;;;;;;;6212350;23;20092;-64
2023/07/18 00:09:20;;;;;;;6.57;3.38;;;;;;;;;;6212615;23;20017;-64
2023/07/18 00:11:47;;;;;;;11.63;3.40;;;;;;;;;;6212101;23;20024;-64
2023/07/18 00:14:15;;;;;;;10.13;3.20;;;;;;;;;;6212705;23;20339;-64
2023/07/18 00:16:41;;;;;;;10.38;3.40;;;;;;;;;;6212781;23;20016;-64
2023/07/18 00:19:09;;;;;;;7.72;3.00;;;;;;;;;;6212264;23;20019;-64
2023/07/18 00:21:36;;;;;;;12.77;3.10;;;;;;;;;;6212520;23;20039;-64
2023/07/18 00:24:02;;;;;;;10.13;3.03;;;;;;;;;;6212613;23;20104;-64
2023/07/18 00:26:28;;;;;;;8.05;2.90;;;;;;;;;;6185238;23;20024;-64
2023/07/18 00:28:54;;;;;;;7.75;2.95;;;;;;;;;;6212543;23;20027;-64
2023/07/18 00:31:21;;;;;;;10.38;3.25;;;;;;;;;;6212432;23;20025;-64
2023/07/18 00:33:47;;;;;;;8.55;3.00;;;;;;;;;;6212083;23;20013;-64
2023/07/18 00:36:14;;;;;;;9.18;3.28;;;;;;;;;;6212091;23;20016;-64
2023/07/18 00:38:40;;;;;;;8.45;2.83;;;;;;;;;;6212352;23;20013;-64
2023/07/18 00:41:08;;;;;;;7.35;2.47;;;;;;;;;;6210566;23;20480;-64
2023/07/18 00:43:34;;;;;;;11.98;3.33;;;;;;;;;;6212037;23;20021;-64
2023/07/18 00:46:01;;;;;;;6.03;3.05;;;;;;;;;;6212142;23;20056;-64
2023/07/18 00:48:33;;;;;;;8.90;3.08;;;;;;;;;;6210120;23;20027;-64
2023/07/18 00:51:07;;;;;;;10.63;3.38;;;;;;;;;;6212344;23;20096;-63
2023/07/18 00:53:33;;;;;;;13.50;3.72;;;;;;;;;;6212350;23;20013;-63
2023/07/18 00:56:00;;;;;;;7.45;3.20;;;;;;;;;;6211955;23;20040;-63
2023/07/18 00:58:26;;;;;;;19.98;3.60;;;;;;;;;;6212484;23;20013;-63
2023/07/18 01:00:52;;;;;;;8.15;2.85;;;;;;;;;;6212322;23;20012;-63
2023/07/18 01:03:18;;;;;;;9.00;3.38;;;;;;;;;;6211878;23;20013;-63
2023/07/18 01:05:44;;;;;;;10.05;3.40;;;;;;;;;;6212267;23;20044;-63
2023/07/18 01:08:10;;;;;;;7.57;3.40;;;;;;;;;;6212552;23;20470;-63
2023/07/18 01:10:38;;;;;;;10.75;3.00;;;;;;;;;;6211930;23;20013;-63
2023/07/18 01:13:04;;;;;;;9.88;3.20;;;;;;;;;;6212354;23;20319;-63
2023/07/18 01:15:31;;;;;;;11.10;4.65;;;;;;;;;;6212008;23;20084;-63
2023/07/18 01:17:57;;;;;;;9.52;3.65;;;;;;;;;;6212048;23;20063;-63
2023/07/18 01:20:26;;;;;;;9.55;3.55;;;;;;;;;;6214216;23;20058;-63
2023/07/18 01:22:56;;;;;;;9.93;3.22;;;;;;;;;;6214081;23;20012;-63
2023/07/18 01:25:22;;;;;;;7.25;3.45;;;;;;;;;;6213648;23;20523;-63
2023/07/18 01:27:49;;;;;;;8.10;3.08;;;;;;;;;;6214110;23;20036;-63
2023/07/18 01:30:16;;;;;;;11.13;4.07;;;;;;;;;;6213973;23;20044;-63
2023/07/18 01:32:42;;;;;;;10.68;3.55;;;;;;;;;;6212989;23;20092;-63
2023/07/18 01:35:09;;;;;;;21.15;4.57;;;;;;;;;;6213838;23;20016;-63
2023/07/18 01:37:36;;;;;;;9.50;3.55;;;;;;;;;;6214217;23;20013;-63
2023/07/18 01:40:05;;;;;;;13.30;3.50;;;;;;;;;;6213718;23;20016;-63
2023/07/18 01:42:32;;;;;;;9.18;3.72;;;;;;;;;;6214031;23;20443;-63
2023/07/18 01:44:58;;;;;;;9.20;3.78;;;;;;;;;;6213911;23;20017;-63
2023/07/18 01:47:24;;;;;;;9.70;3.80;;;;;;;;;;6213465;23;20021;-63
2023/07/18 01:49:50;;;;;;;11.75;4.07;;;;;;;;;;6213995;23;20019;-63
2023/07/18 01:52:16;;;;;;;10.23;3.80;;;;;;;;;;6213819;23;20443;-63
2023/07/18 01:54:42;;;;;;;8.48;3.53;;;;;;;;;;6213509;23;20080;-63
2023/07/18 01:57:08;;;;;;;9.20;3.60;;;;;;;;;;6187107;23;20079;-63
2023/07/18 01:59:34;;;;;;;9.27;3.30;;;;;;;;;;6213982;23;20020;-63
2023/07/18 02:02:04;;;;;;;12.63;3.33;;;;;;;;;;6212811;23;20083;-63
2023/07/18 02:04:30;;;;;;;7.68;3.67;;;;;;;;;;6213722;23;20479;-63
2023/07/18 02:06:56;;;;;;;11.65;4.45;;;;;;;;;;6213755;23;20020;-63
2023/07/18 02:09:23;;;;;;;12.68;4.28;;;;;;;;;;6213139;23;20052;-63
2023/07/18 02:11:49;;;;;;;12.85;4.43;;;;;;;;;;6213302;23;20016;-63
2023/07/18 02:14:19;;;;;;;11.15;4.07;;;;;;;;;;6186837;23;20486;-63
2023/07/18 02:16:45;;;;;;;11.25;4.55;;;;;;;;;;6213162;23;20013;-63
2023/07/18 02:19:11;;;;;;;10.52;3.97;;;;;;;;;;6213658;23;20516;-63
2023/07/18 02:21:37;;;;;;;10.60;4.28;;;;;;;;;;6213543;23;20048;-63
2023/07/18 02:24:04;;;;;;;8.48;4.00;;;;;;;;;;6212707;23;20074;-63
2023/07/18 02:26:30;;;;;;;9.20;3.70;;;;;;;;;;6213625;23;20016;-63
2023/07/18 02:28:56;;;;;;;8.95;4.47;;;;;;;;;;6213672;23;20020;-63
2023/07/18 02:31:22;;;;;;;15.15;4.35;;;;;;;;;;6212133;23;20066;-63
2023/07/18 02:33:48;;;;;;;7.40;4.13;;;;;;;;;;6213268;23;20016;-63
2023/07/18 02:36:14;;;;;;;12.93;4.35;;;;;;;;;;6213104;23;20024;-63
2023/07/18 02:38:40;;;;;;;9.27;4.40;;;;;;;;;;6213049;23;20087;-64
2023/07/18 02:41:06;;;;;;;9.95;4.07;;;;;;;;;;6213439;23;20016;-64
2023/07/18 02:43:32;;;;;;;11.88;4.10;;;;;;;;;;6213231;23;20574;-63
2023/07/18 02:45:58;;;;;;;9.32;4.13;;;;;;;;;;6212951;23;20016;-63
2023/07/18 02:48:24;;;;;;;10.70;3.85;;;;;;;;;;6213145;23;20021;-63
2023/07/18 02:50:50;;;;;;;8.38;4.32;;;;;;;;;;6186224;23;20027;-63
2023/07/18 02:53:17;;;;;;;10.40;3.42;;;;;;;;;;6212785;23;20796;-63
2023/07/18 02:55:43;;;;;;;9.85;4.18;;;;;;;;;;6213315;23;20008;-64
2023/07/18 02:58:09;;;;;;;13.38;4.30;;;;;;;;;;6213310;23;20577;-64
2023/07/18 03:00:36;;;;;;;9.98;4.57;;;;;;;;;;6212775;23;20023;-64
2023/07/18 03:03:02;;;;;;;9.23;4.70;;;;;;;;;;6213051;23;20012;-64
2023/07/18 03:05:29;;;;;;;10.60;3.92;;;;;;;;;;6213217;23;20012;-64
2023/07/18 03:07:55;;;;;;;12.15;3.92;;;;;;;;;;6212336;23;20034;-63
2023/07/18 03:10:21;;;;;;;10.23;4.15;;;;;;;;;;6213240;23;20476;-63
2023/07/18 03:12:49;;;;;;;12.63;4.22;;;;;;;;;;6212682;23;20055;-63
2023/07/18 03:15:16;;;;;;;10.55;4.15;;;;;;;;;;6212716;23;20013;-63
2023/07/18 03:17:42;;;;;;;11.32;3.72;;;;;;;;;;6213049;23;20013;-63
2023/07/18 03:20:17;;;;;;;11.68;3.90;;;;;;;;;;6213232;23;20040;-63
2023/07/18 03:22:49;;;;;;;13.55;3.80;;;;;;;;;;6212071;23;20020;-63
2023/07/18 03:25:17;;;;;;;11.52;3.75;;;;;;;;;;6186163;23;20023;-63
2023/07/18 03:27:43;;;;;;;10.15;4.28;;;;;;;;;;6212668;23;20044;-63
2023/07/18 03:30:13;;;;;;;9.30;3.75;;;;;;;;;;6212422;23;20626;-63
2023/07/18 03:32:39;;;;;;;11.05;4.85;;;;;;;;;;6212322;23;20024;-63
2023/07/18 03:35:06;;;;;;;13.93;4.50;;;;;;;;;;6212309;23;20078;-63
2023/07/18 03:37:33;;;;;;;12.15;4.35;;;;;;;;;;6212447;23;20556;-63
2023/07/18 03:39:59;;;;;;;11.15;4.55;;;;;;;;;;6212555;23;20009;-63
2023/07/18 03:42:25;;;;;;;15.43;4.05;;;;;;;;;;6212377;23;20020;-63
2023/07/18 03:44:51;;;;;;;8.13;3.95;;;;;;;;;;6212395;23;20048;-63
2023/07/18 03:47:17;;;;;;;14.90;4.65;;;;;;;;;;6212937;23;20012;-63
2023/07/18 03:49:43;;;;;;;13.07;4.03;;;;;;;;;;6212937;23;20016;-63
2023/07/18 03:52:09;;;;;;;11.52;4.22;;;;;;;;;;6212018;23;20017;-63
2023/07/18 03:54:35;;;;;;;11.07;4.28;;;;;;;;;;6212353;23;20012;-63
2023/07/18 03:57:01;;;;;;;11.50;5.13;;;;;;;;;;6212799;23;20048;-63
2023/07/18 03:59:28;;;;;;;11.15;5.00;;;;;;;;;;6212469;23;20020;-64
2023/07/18 04:01:54;;;;;;;9.50;4.35;;;;;;;;;;6212536;23;20016;-64
2023/07/18 04:04:20;;;;;;;10.93;3.90;;;;;;;;;;6212846;23;20020;-63
2023/07/18 04:06:46;;;;;;;12.00;4.53;;;;;;;;;;6212270;23;20095;-63
2023/07/18 04:09:12;;;;;;;12.73;4.43;;;;;;;;;;6212226;23;20047;-63
2023/07/18 04:11:41;;;;;;;14.02;4.10;;;;;;;;;;6212555;23;20019;-63
2023/07/18 04:14:07;;;;;;;12.27;4.40;;;;;;;;;;6212837;23;20009;-63
2023/07/18 04:16:33;;;;;;;11.10;5.35;;;;;;;;;;6212234;23;20359;-63
2023/07/18 04:18:59;;;;;;;10.30;4.32;;;;;;;;;;6212735;23;20008;-63
2023/07/18 04:21:25;;;;;;;11.68;4.40;;;;;;;;;;6212458;23;20446;-63
2023/07/18 04:23:51;;;;;;;12.75;4.65;;;;;;;;;;6211964;23;20029;-64
2023/07/18 04:26:18;;;;;;;12.57;4.13;;;;;;;;;;6212825;23;20071;-63
2023/07/18 04:28:44;;;;;;;15.18;4.25;;;;;;;;;;6212840;23;20024;-63
2023/07/18 04:31:10;;;;;;;10.25;4.47;;;;;;;;;;6212509;23;20017;-63
2023/07/18 04:33:37;;;;;;;14.30;5.13;;;;;;;;;;6212970;23;20012;-63
2023/07/18 04:36:04;;;;;;;8.70;5.00;;;;;;;;;;6212646;23;20466;-63
2023/07/18 04:38:30;;;;;;;11.38;4.80;;;;;;;;;;6212499;23;20013;-63
2023/07/18 04:40:56;;;;;;;11.52;3.80;;;;;;;;;;6212911;23;20008;-64
2023/07/18 04:43:23;;;;;;;14.20;5.13;;;;;;;;;;6212491;23;20020;-64
2023/07/18 04:45:49;;;;;;;12.98;4.55;;;;;;;;;;6212623;23;20347;-64
2023/07/18 04:48:16;;;;;;;9.77;4.60;;;;;;;;;;6213114;23;20017;-64
2023/07/18 04:50:43;;;;;;;10.13;4.30;;;;;;;;;;6213051;23;20092;-63
2023/07/18 04:53:10;;;;;;;13.20;4.55;;;;;;;;;;6212574;23;20020;-64
2023/07/18 04:55:36;;;;;;;12.20;4.78;;;;;;;;;;6214693;23;20048;-64
2023/07/18 04:58:03;;;;;;;13.57;4.60;;;;;;;;;;6213413;23;20008;-64
2023/07/18 05:00:29;;;;;;;10.73;4.00;;;;;;;;;;6214250;23;20013;-64
2023/07/18 05:02:56;;;;;;;13.00;4.90;;;;;;;;;;6214893;23;20012;-64
2023/07/18 05:05:23;;;;;;;11.80;4.32;;;;;;;;;;6214423;23;20020;-64
2023/07/18 05:07:49;;;;;;;9.07;4.30;;;;;;;;;;6214458;23;20062;-64
2023/07/18 05:10:15;;;;;;;11.43;4.13;;;;;;;;;;6214897;23;20613;-64
2023/07/18 05:12:41;;;;;;;13.90;4.28;;;;;;;;;;6214728;23;20028;-64
2023/07/18 05:15:08;;;;;;;13.13;4.03;;;;;;;;;;6214361;23;20020;-64
2023/07/18 05:17:34;;;;;;;10.35;4.05;;;;;;;;;;6214301;23;20013;-63
2023/07/18 05:20:00;;;;;;;7.63;4.00;;;;;;;;;;6214884;23;20149;-63
2023/07/18 05:22:26;;;;;;;12.15;3.67;;;;;;;;;;6214176;23;20107;-63
2023/07/18 05:24:52;;;;;;;13.73;4.28;;;;;;;;;;6214639;23;20380;-63
2023/07/18 05:27:18;;;;;;;12.32;4.32;;;;;;;;;;6214911;23;20016;-63
2023/07/18 05:29:44;;;;;;;14.80;4.72;;;;;;;;;;6213871;23;20012;-63
2023/07/18 05:32:10;;;;;;;12.18;4.47;;;;;;;;;;6214271;23;20183;-63
2023/07/18 05:34:36;;;;;;;8.90;3.40;;;;;;;;;;6214552;23;20053;-63
2023/07/18 05:37:02;;;;;;;11.15;3.67;;;;;;;;;;6213567;23;20027;-63
2023/07/18 05:39:29;;;;;;;13.68;4.18;;;;;;;;;;6214408;23;20572;-63
2023/07/18 05:41:55;;;;;;;12.60;3.92;;;;;;;;;;6214458;23;20016;-63
2023/07/18 05:44:21;;;;;;;14.15;4.63;;;;;;;;;;6213881;23;20046;-63
2023/07/18 05:46:47;;;;;;;13.50;3.90;;;;;;;;;;6214202;23;20044;-63
2023/07/18 05:49:14;;;;;;;11.95;4.10;;;;;;;;;;6214467;23;20450;-63
2023/07/18 05:51:40;;;;;;;14.40;4.40;;;;;;;;;;6213902;23;20020;-63
2023/07/18 05:54:06;;;;;;;10.20;3.22;;;;;;;;;;6214406;23;20094;-63
2023/07/18 05:56:33;;;;;;;11.18;3.67;;;;;;;;;;6214495;23;20009;-63
2023/07/18 05:59:05;;;;;;;11.27;4.35;;;;;;;;;;6212387;23;20009;-63
2023/07/18 06:01:31;;;;;;;9.20;3.72;;;;;;;;;;6214270;23;20017;-63
2023/07/18 06:03:57;;;;;;;11.50;3.35;;;;;;;;;;6214167;23;20293;-63
2023/07/18 06:06:24;;;;;;;9.32;3.60;;;;;;;;;;6213553;23;20079;-63
2023/07/18 06:08:50;;;;;;;10.05;3.60;;;;;;;;;;6214284;23;20066;-63
2023/07/18 06:11:18;;;;;;;11.35;3.78;;;;;;;;;;6214304;23;20017;-64
2023/07/18 06:13:45;;;;;;;13.60;3.75;;;;;;;;;;6213771;23;20492;-64
2023/07/18 06:16:11;;;;;;;7.28;3.13;;;;;;;;;;6214327;23;20017;-64
2023/07/18 06:18:37;;;;;;;7.88;3.45;;;;;;;;;;6214198;23;20012;-64
2023/07/18 06:21:03;;;;;;;12.02;3.35;;;;;;;;;;6213796;23;20013;-63
2023/07/18 06:23:30;;;;;;;10.68;3.60;;;;;;;;;;6214156;23;20017;-63
2023/07/18 06:25:56;;;;;;;9.00;3.10;;;;;;;;;;6214177;23;20088;-63
2023/07/18 06:28:22;;;;;;;10.52;3.00;;;;;;;;;;6213743;23;20064;-63
2023/07/18 06:30:51;;;;;;;9.02;3.08;;;;;;;;;;6213945;23;20051;-63
2023/07/18 06:33:19;;;;;;;10.70;3.15;;;;;;;;;;6209279;23;20439;-64
2023/07/18 06:35:51;;;;;;;8.85;2.85;;;;;;;;;;6203530;23;20730;-64
2023/07/18 06:38:17;;;;;;;8.93;2.85;;;;;;;;;;6209690;23;20016;-64
2023/07/18 06:40:47;;;;;;;7.40;2.92;;;;;;;;;;6210974;23;20009;-63
2023/07/18 06:43:13;;;;;;;13.75;2.85;;;;;;;;;;6211477;23;20009;-63
2023/07/18 06:45:40;;;;;;;10.02;3.20;;;;;;;;;;6212132;23;20016;-62
2023/07/18 06:48:06;;;;;;;10.60;2.90;;;;;;;;;;6212935;23;20088;-61
2023/07/18 06:50:32;;;;;;;11.07;3.38;;;;;;;;;;6212082;23;20470;-62
2023/07/18 06:52:58;;;;;;;13.88;3.13;;;;;;;;;;6213146;23;20013;-63
2023/07/18 06:55:24;;;;;;;10.05;3.15;;;;;;;;;;6211513;23;20016;-62
2023/07/18 06:57:50;;;;;;;11.38;3.03;;;;;;;;;;6211894;23;20083;-62
2023/07/18 07:00:16;;;;;;;12.85;3.10;;;;;;;;;;6213465;23;20051;-63
2023/07/18 07:02:42;;;;;;;9.57;3.65;;;;;;;;;;6211818;23;20374;-62
2023/07/18 07:05:09;;;;;;;7.18;2.53;;;;;;;;;;6209925;23;20102;-63
2023/07/18 07:07:35;;;;;;;10.38;3.60;;;;;;;;;;6209661;23;20363;-62
2023/07/18 07:10:01;;;;;;;9.00;2.63;;;;;;;;;;6212440;23;20115;-62
2023/07/18 07:12:27;;;;;;;10.80;2.70;;;;;;;;;;6211986;23;20043;-62
2023/07/18 07:14:53;;;;;;;6.78;2.78;;;;;;;;;;6211439;23;20478;-62
2023/07/18 07:17:19;;;;;;;9.65;2.55;;;;;;;;;;6206335;23;20436;-62
2023/07/18 07:19:45;;;;;;;12.85;2.85;;;;;;;;;;6202964;23;20017;-62
2023/07/18 07:22:13;;;;;;;11.25;3.15;;;;;;;;;;6211330;23;20016;-62
2023/07/18 07:24:39;;;;;;;9.93;3.00;;;;;;;;;;6211739;23;20021;-62
2023/07/18 07:27:07;;;;;;;12.85;3.70;;;;;;;;;;6210112;23;20095;-62
2023/07/18 07:29:33;;;;;;;12.88;3.40;;;;;;;;;;6210129;23;20016;-62
2023/07/18 07:31:59;;;;;;;12.73;3.30;;;;;;;;;;6211952;23;20027;-64
2023/07/18 07:34:25;;;;;;;13.70;3.35;;;;;;;;;;6208851;23;20752;-63
2023/07/18 07:36:52;;;;;;;13.65;3.33;;;;;;;;;;6210703;23;20016;-63
2023/07/18 07:39:19;;;;;;;13.48;3.40;;;;;;;;;;6211947;23;20008;-62
2023/07/18 07:41:46;;;;;;;10.90;2.72;;;;;;;;;;6210176;23;20345;-63
2023/07/18 07:44:12;;;;;;;10.65;3.35;;;;;;;;;;6210405;23;20056;-62
2023/07/18 07:46:38;;;;;;;13.50;3.65;;;;;;;;;;6210843;23;20020;-62
2023/07/18 07:49:04;;;;;;;14.75;3.58;;;;;;;;;;6211768;23;20016;-63
2023/07/18 07:51:30;;;;;;;12.02;3.88;;;;;;;;;;6211545;23;20096;-63
2023/07/18 07:53:58;;;;;;;15.15;4.03;;;;;;;;;;6211572;23;20048;-63
2023/07/18 07:56:24;;;;;;;13.02;3.63;;;;;;;;;;6210426;23;20024;-62
2023/07/18 07:58:50;;;;;;;10.65;3.95;;;;;;;;;;6208947;23;20012;-62
2023/07/18 08:01:16;;;;;;;7.85;3.45;;;;;;;;;;6208469;23;20016;-62
2023/07/18 08:03:42;;;;;;;12.80;4.07;;;;;;;;;;6210769;23;20022;-62
2023/07/18 08:06:08;;;;;;;11.10;3.92;;;;;;;;;;6210488;23;20017;-62
2023/07/18 08:08:35;;;;;;;14.02;4.10;;;;;;;;;;6210953;23;20082;-62
2023/07/18 08:11:01;;;;;;;13.60;3.50;;;;;;;;;;6211074;23;20020;-63
2023/07/18 08:13:28;;;;;;;17.33;4.50;;;;;;;;;;6210553;23;20008;-62
2023/07/18 08:15:54;;;;;;;17.15;4.72;;;;;;;;;;6210925;23;20038;-62
2023/07/18 08:18:20;;;;;;;16.38;4.25;;;;;;;;;;6210547;23;20044;-63
2023/07/18 08:20:47;;;;;;;14.15;4.03;;;;;;;;;;6183453;23;20020;-63
2023/07/18 08:23:14;;;;;;;15.23;4.05;;;;;;;;;;6210715;23;20098;-63
2023/07/18 08:25:43;;;;;;;13.80;3.58;;;;;;;;;;6207936;23;20048;-63
2023/07/18 08:28:09;;;;;;;20.00;3.40;;;;;;;;;;6210292;23;20072;-62
2023/07/18 08:30:35;;;;;;;11.57;2.47;;;;;;;;;;6210813;23;20078;-62
2023/07/18 08:33:01;;;;;;;11.10;2.65;;;;;;;;;;6210024;23;20012;-62
2023/07/18 08:35:27;;;;;;;15.68;3.85;;;;;;;;;;6210117;23;20374;-62
2023/07/18 08:37:54;;;;;;;16.00;3.20;;;;;;;;;;6211761;23;20013;-62
2023/07/18 08:40:20;;;;;;;15.43;3.15;;;;;;;;;;6211729;23;20051;-62
2023/07/18 08:42:46;;;;;;;13.40;3.20;;;;;;;;;;6211296;23;20016;-62
2023/07/18 08:45:14;;;;;;;9.32;2.80;;;;;;;;;;6184755;23;20024;-62
2023/07/18 08:47:41;;;;;;;12.48;3.20;;;;;;;;;;6211051;23;20095;-62
2023/07/18 08:50:10;;;;;;;9.00;2.85;;;;;;;;;;6209093;23;20466;-63
2023/07/18 08:52:37;;;;;;;12.52;2.85;;;;;;;;;;6202802;23;20861;-64
2023/07/18 08:55:04;;;;;;;12.82;2.92;;;;;;;;;;6211146;23;20092;-63
2023/07/18 08:57:30;;;;;;;12.80;2.50;;;;;;;;;;6210578;23;20108;-63
2023/07/18 08:59:59;;;;;;;7.47;2.17;;;;;;;;;;6201031;23;20017;-62
2023/07/18 09:02:25;;;;;;;12.98;2.15;;;;;;;;;;6210666;23;20459;-62
2023/07/18 09:04:51;;;;;;;10.73;2.45;;;;;;;;;;6211032;23;20017;-63
2023/07/18 09:07:19;;;;;;;10.75;2.33;;;;;;;;;;6211598;23;20062;-62
2023/07/18 09:09:46;;;;;;;9.63;2.35;;;;;;;;;;6211035;23;20066;-62
2023/07/18 09:12:13;;;;;;;6.63;2.00;;;;;;;;;;6210798;23;20082;-63
2023/07/18 09:14:39;;;;;;;7.38;2.17;;;;;;;;;;6211825;23;20008;-62
2023/07/18 09:17:06;;;;;;;7.88;2.20;;;;;;;;;;6212002;23;20327;-63
2023/07/18 09:19:36;;;;;;;8.98;2.50;;;;;;;;;;6210414;23;20048;-62
2023/07/18 09:22:03;;;;;;;11.45;2.03;;;;;;;;;;6211114;23;20577;-62
2023/07/18 09:24:32;;;;;;;11.60;1.90;;;;;;;;;;6211476;23;20044;-62
2023/07/18 09:26:58;;;;;;;9.60;2.20;;;;;;;;;;6211443;23;20497;-63
2023/07/18 09:29:27;;;;;;;10.27;2.03;;;;;;;;;;6211358;23;20019;-63
2023/07/18 09:31:55;;;;;;;9.63;2.28;;;;;;;;;;6210097;23;20019;-63
2023/07/18 09:34:21;;;;;;;4.82;1.80;;;;;;;;;;6210285;23;20189;-63
2023/07/18 09:37:01;;;;;;;7.45;2.08;;;;;;;;;;6210013;23;20020;-63
2023/07/18 09:39:28;;;;;;;7.40;1.90;;;;;;;;;;6210580;23;20044;-63
2023/07/18 09:41:55;;;;;;;5.70;1.48;;;;;;;;;;6211196;23;20482;-63
2023/07/18 09:44:22;;;;;;;8.55;1.80;;;;;;;;;;6212885;23;20023;-63
2023/07/18 09:46:50;;;;;;;7.07;1.98;;;;;;;;;;6212905;23;20023;-63
2023/07/18 09:49:17;;;;;;;6.35;1.80;;;;;;;;;;6185615;23;20016;-62
2023/07/18 09:52:16;;;;;;;9.40;1.85;;;;;;;;;;6212260;23;20020;-63
2023/07/18 09:54:43;;;;;;;4.15;1.58;;;;;;;;;;6146195;23;20012;-63
2023/07/18 09:57:10;;;;;;;8.95;2.35;;;;;;;;;;6213083;23;20019;-62
2023/07/18 09:59:39;;;;;;;6.57;1.40;;;;;;;;;;6212592;23;20082;-63
2023/07/18 10:02:10;;;;;;;7.25;1.63;;;;;;;;;;6212151;23;20021;-63
2023/07/18 10:04:36;;;;;;;7.30;1.60;;;;;;;;;;6212906;23;20689;-64
2023/07/18 10:07:03;;;;;;;12.57;1.98;;;;;;;;;;6212096;23;20306;-64
2023/07/18 10:09:29;;;;;;;5.50;1.70;;;;;;;;;;6211826;23;20092;-63
2023/07/18 10:11:59;;;;;;;6.30;1.60;;;;;;;;;;6211561;23;20420;-63
2023/07/18 10:14:28;;;;;;;6.65;1.50;;;;;;;;;;6210947;23;20108;-63
2023/07/18 10:16:55;;;;;;;6.40;1.52;;;;;;;;;;6212761;23;20090;-62
2023/07/18 10:19:23;;;;;;;5.45;2.08;;;;;;;;;;6185414;23;20017;-63
2023/07/18 10:21:51;;;;;;;4.50;1.20;;;;;;;;;;6185164;23;20023;-63
2023/07/18 10:24:20;;;;;;;6.57;1.13;;;;;;;;;;6208311;23;20070;-63
2023/07/18 10:26:58;;;;;;;5.05;1.42;;;;;;;;;;6211390;23;20021;-63
2023/07/18 10:29:29;;;;;;;3.72;1.20;;;;;;;;;;6210423;23;20024;-62
2023/07/18 10:31:55;;;;;;;4.22;0.90;;;;;;;;;;6211313;23;20020;-61
2023/07/18 10:34:21;;;;;;;3.60;0.98;;;;;;;;;;6210749;23;20024;-61
2023/07/18 10:37:00;;;;;;;4.78;1.10;;;;;;;;;;6212348;23;20444;-62
2023/07/18 10:39:39;;;;;;;6.25;1.30;;;;;;;;;;6211738;23;20024;-63
2023/07/18 10:42:09;;;;;;;2.85;0.88;;;;;;;;;;6211115;23;20095;-63
2023/07/18 10:44:39;;;;;;;3.97;1.27;;;;;;;;;;6211787;23;20024;-63
2023/07/18 10:47:23;;;;;;;4.90;1.30;;;;;;;;;;6204523;23;20027;-63
2023/07/18 10:49:49;;;;;;;3.70;1.20;;;;;;;;;;6212541;23;20012;-63
2023/07/18 10:52:16;;;;;;;4.03;1.02;;;;;;;;;;6212050;23;20071;-63
2023/07/18 10:54:45;;;;;;;4.50;1.23;;;;;;;;;;6211886;23;20317;-63
2023/07/18 10:57:11;;;;;;;2.70;1.00;;;;;;;;;;6211577;23;20016;-63
2023/07/18 10:59:37;;;;;;;1.80;0.88;;;;;;;;;;6211638;23;20013;-63
2023/07/18 11:02:04;;;;;;;4.15;0.80;;;;;;;;;;6211688;23;20013;-62
2023/07/18 11:04:30;;;;;;;4.18;1.50;;;;;;;;;;6212825;23;20323;-62
2023/07/18 11:06:58;;;;;;;3.08;1.10;;;;;;;;;;6185560;23;20099;-62
2023/07/18 11:09:24;;;;;;;3.60;0.95;;;;;;;;;;6211762;23;20371;-63
2023/07/18 11:11:50;;;;;;;3.40;0.90;;;;;;;;;;6211352;23;20112;-63
2023/07/18 11:14:18;;;;;;;1.55;0.65;;;;;;;;;;6212022;23;20042;-64
2023/07/18 11:16:44;;;;;;;4.10;1.13;;;;;;;;;;6211697;23;20044;-65
2023/07/18 11:19:10;;;;;;;3.63;0.90;;;;;;;;;;6211871;23;20017;-64
2023/07/18 11:21:37;;;;;;;4.38;0.88;;;;;;;;;;6211003;23;20016;-64
2023/07/18 11:24:04;;;;;;;3.20;0.70;;;;;;;;;;6211379;23;20067;-64
2023/07/18 11:26:30;;;;;;;2.35;0.80;;;;;;;;;;6212384;23;20051;-64
2023/07/18 11:28:57;;;;;;;5.10;1.08;;;;;;;;;;6212777;23;20016;-64
2023/07/18 11:31:39;;;;;;;2.15;0.95;;;;;;;;;;6184053;23;20100;-64
2023/07/18 11:34:05;;;;;;;4.40;1.10;;;;;;;;;;6211332;23;20027;-64
2023/07/18 11:36:32;;;;;;;7.43;1.40;;;;;;;;;;6212101;23;20063;-64
2023/07/18 11:39:00;;;;;;;2.15;0.90;;;;;;;;;;6211673;23;20008;-64
2023/07/18 11:41:32;;;;;;;3.30;0.85;;;;;;;;;;6211398;23;20020;-64
2023/07/18 11:43:58;;;;;;;;;;;;;;;;;;6212830;23;20059;-64
2023/07/18 11:46:40;;;;;;;3.25;0.80;;;;;;;;;;6211856;23;19918;-64
2023/07/18 11:49:06;;;;;;;3.87;0.83;;;;;;;;;;6212667;23;20008;-64
2023/07/18 11:51:32;;;;;;;2.75;1.00;;;;;;;;;;6210767;23;20071;-64
2023/07/18 11:54:02;;;;;;;6.03;1.52;;;;;;;;;;6211880;23;20040;-64
2023/07/18 11:56:28;;;;;;;2.63;0.98;;;;;;;;;;6212294;23;20108;-64
2023/07/18 11:58:55;;;;;;;3.60;1.15;;;;;;;;;;6211536;23;20408;-64
2023/07/18 12:01:21;;;;;;;2.55;0.90;;;;;;;;;;6211198;23;20301;-64
2023/07/18 12:03:47;;;;;;;3.55;1.00;;;;;;;;;;6211182;23;20017;-64
2023/07/18 12:06:13;;;;;;;2.67;1.02;;;;;;;;;;6211726;23;20012;-64
2023/07/18 12:08:39;;;;;;;3.65;0.82;;;;;;;;;;6211624;23;20416;-64
2023/07/18 12:11:09;;;;;;;2.63;1.15;;;;;;;;;;6211832;23;20020;-64
2023/07/18 12:13:35;;;;;;;6.90;1.20;;;;;;;;;;6211608;23;20013;-64
2023/07/18 12:16:01;;;;;;;3.97;1.27;;;;;;;;;;6211675;23;20017;-63
2023/07/18 12:18:27;;;;;;;2.60;0.93;;;;;;;;;;6211926;23;20085;-63
2023/07/18 12:20:53;;;;;;;4.00;0.95;;;;;;;;;;6211220;23;20009;-64
2023/07/18 12:23:19;;;;;;;3.03;0.90;;;;;;;;;;6211036;23;20023;-63
2023/07/18 12:25:47;;;;;;;5.05;1.20;;;;;;;;;;6211564;23;20013;-63
2023/07/18 12:28:13;;;;;;;3.17;0.90;;;;;;;;;;6212243;23;20009;-63
2023/07/18 12:30:39;;;;;;;2.25;1.05;;;;;;;;;;6211193;23;20605;-64
2023/07/18 12:33:05;;;;;;;3.35;0.90;;;;;;;;;;6211852;23;20483;-65
2023/07/18 12:35:31;;;;;;;4.47;0.82;;;;;;;;;;6211205;23;20649;-64
2023/07/18 12:37:57;;;;;;;2.83;0.95;;;;;;;;;;6211286;23;20017;-63
2023/07/18 12:40:23;;;;;;;2.13;0.80;;;;;;;;;;6211464;23;20092;-61
2023/07/18 12:42:50;;;;;;;5.03;0.93;;;;;;;;;;6210824;23;20016;-63
2023/07/18 12:45:16;;;;;;;1.85;0.70;;;;;;;;;;6210599;23;20016;-62
2023/07/18 12:47:43;;;;;;;5.10;1.08;;;;;;;;;;6211485;23;20024;-62
2023/07/18 12:50:10;;;;;;;5.63;1.05;;;;;;;;;;6211979;23;20016;-62
2023/07/18 12:52:37;;;;;;;3.78;1.02;;;;;;;;;;6210566;23;20047;-62
2023/07/18 12:55:03;;;;;;;4.85;1.30;;;;;;;;;;6184865;23;20016;-62
2023/07/18 12:57:29;;;;;;;5.60;1.30;;;;;;;;;;6211397;23;20017;-61
2023/07/18 12:59:55;;;;;;;6.55;1.70;;;;;;;;;;6210634;23;20024;-60
2023/07/18 13:02:21;;;;;;;5.90;1.38;;;;;;;;;;6210552;23;20354;-63
2023/07/18 13:04:47;;;;;;;5.35;1.20;;;;;;;;;;6211873;23;20099;-63
2023/07/18 13:07:14;;;;;;;4.70;1.48;;;;;;;;;;6211166;23;20095;-63
2023/07/18 13:09:40;;;;;;;4.57;1.52;;;;;;;;;;6211500;23;20024;-64
2023/07/18 13:12:07;;;;;;;3.95;1.20;;;;;;;;;;6210847;23;20013;-64
2023/07/18 13:14:33;;;;;;;5.22;1.17;;;;;;;;;;6211448;23;20055;-64
2023/07/18 13:16:59;;;;;;;5.30;1.58;;;;;;;;;;6213561;23;20019;-64
2023/07/18 13:19:25;;;;;;;8.07;1.58;;;;;;;;;;6211987;23;20013;-63
2023/07/18 13:21:51;;;;;;;6.80;1.42;;;;;;;;;;6212125;23;20017;-63
2023/07/18 13:24:18;;;;;;;5.90;1.52;;;;;;;;;;6211545;23;20023;-62
2023/07/18 13:26:44;;;;;;;8.32;1.70;;;;;;;;;;6212863;23;20043;-62
2023/07/18 13:29:10;;;;;;;3.65;1.40;;;;;;;;;;6212904;23;20439;-64
2023/07/18 13:31:36;;;;;;;7.45;1.60;;;;;;;;;;6211640;23;20063;-64
2023/07/18 13:34:03;;;;;;;4.20;1.90;;;;;;;;;;6213497;23;20428;-63
2023/07/18 13:36:29;;;;;;;9.00;2.30;;;;;;;;;;6212807;23;20012;-63
2023/07/18 13:38:55;;;;;;;7.70;1.85;;;;;;;;;;6212599;23;20091;-62
2023/07/18 13:41:21;;;;;;;6.20;1.58;;;;;;;;;;6212262;23;20444;-63
2023/07/18 13:43:47;;;;;;;6.72;1.85;;;;;;;;;;6212464;23;20048;-63
2023/07/18 13:46:14;;;;;;;9.23;1.70;;;;;;;;;;6212846;23;20017;-63
2023/07/18 13:48:40;;;;;;;6.35;1.63;;;;;;;;;;6212950;23;20328;-63
2023/07/18 13:51:07;;;;;;;7.88;1.50;;;;;;;;;;6212266;23;20028;-63
2023/07/18 13:53:33;;;;;;;7.63;1.95;;;;;;;;;;6212070;23;20008;-61
2023/07/18 13:55:59;;;;;;;6.95;1.50;;;;;;;;;;6212805;23;20091;-62
2023/07/18 13:58:25;;;;;;;5.05;1.10;;;;;;;;;;6213051;23;20420;-60
2023/07/18 14:00:51;;;;;;;3.88;1.23;;;;;;;;;;6212209;23;20016;-61
2023/07/18 14:03:17;;;;;;;4.60;1.05;;;;;;;;;;6212510;23;20330;-61
2023/07/18 14:05:43;;;;;;;6.35;1.10;;;;;;;;;;6213002;23;20012;-61
2023/07/18 14:08:09;;;;;;;4.57;1.30;;;;;;;;;;6211965;23;20023;-61
2023/07/18 14:10:35;;;;;;;4.82;1.45;;;;;;;;;;6212411;23;20023;-61
2023/07/18 14:13:01;;;;;;;5.85;1.35;;;;;;;;;;6212499;23;20339;-63
2023/07/18 14:15:27;;;;;;;5.57;1.05;;;;;;;;;;6211951;23;20023;-63
2023/07/18 14:17:53;;;;;;;6.50;1.65;;;;;;;;;;6213095;23;20078;-62
2023/07/18 14:20:19;;;;;;;2.97;1.08;;;;;;;;;;6211930;23;20012;-61
2023/07/18 14:22:48;;;;;;;3.17;0.98;;;;;;;;;;6211548;23;20016;-62
2023/07/18 14:25:14;;;;;;;5.85;1.50;;;;;;;;;;6211618;23;20067;-62
2023/07/18 14:27:40;;;;;;;3.67;1.00;;;;;;;;;;6212635;23;20023;-61
2023/07/18 14:30:07;;;;;;;2.97;1.30;;;;;;;;;;6212617;23;20013;-62
2023/07/18 14:32:33;;;;;;;4.07;1.20;;;;;;;;;;6212928;23;20016;-63
2023/07/18 14:34:59;;;;;;;4.50;1.13;;;;;;;;;;6212928;23;20028;-64
2023/07/18 14:37:25;;;;;;;6.90;1.65;;;;;;;;;;6212881;23;20021;-63